Terminal Aerodrome Forecast
Issued by NWS

Home | Current Version | Previous Version | Text Only | Print | Product List | Glossary On
Versions: 1 2 3 4 5 6 7 8 9 10 11 12 13 14 15 16 17 18 19 20 21 22 23 24 25 26
642
FTUS43 KILX 141903 AAA
TAFBMI
TAF AMD
KBMI 141903Z 1419/1518 14017G24KT 1 1/2SM -SN BR SCT001 OVC015
      TEMPO 1419/1421 3SM -SN BR OVC007
     FM142100 14015G22KT 3SM -SN BR SCT006 OVC010
      TEMPO 1421/1501 5SM -SN BR OVC006
     FM150100 14011KT 3SM BR VCSH OVC010
     FM150500 17008KT 4SM BR VCSH OVC007
     FM151400 20008KT 4SM BR OVC012=

USA.gov is the U.S. government's official web portal to all federal, state and local government web resources and services.